Aérodrome :
LOGIN :

S'inscrire | Disclaimer

   EN    FR    IT 

 










Légende :    VFR   VFR Marginal   IFR   IFR Intensif   IFR Très Intensif
Visi : 
Plafond : 
>= 8 km
>= 3000ft
5 à 8 km
1000 à 3000 ft
1500m à 5 km
500 à 1000 ft
800 à 1500m
200 à 500 ft
< 800m
< 200 ft
Symboles :   Orages  Brouillard  Fortes neiges  Fortes précipitations  Vent > 20 kt
SIGMETs :   Divers  Orages  Givrage  Turbulence  Onde Orograph.  Cendres Volcan.






- Altitude de l'aérodrome : 93 ft
- Code IATA : XRY


LEJR - Jerez

DERNIER METAR :
  • 201130Z 16008KT 110V210 8000 3500N FEW020 BKN050 15/12 Q1011

METARs EXPIRÉS :
  • 201100Z 16010KT 130V200 7000 3000N FEW020 OVC050 13/12 Q1012
  • 201030Z 17008KT 130V200 6000 2500N FEW015 BKN040 OVC055 13/12 Q1012
  • 201000Z 18004KT 130V220 6000 2500N SCT025 OVC060 12/11 Q1013 REDZ
  • 200930Z 16005KT 100V230 5000 2000N -DZ SCT025 OVC060 12/11 Q1012
  • 200900Z 15007KT 120V200 3500 1700N -RA SCT025 OVC060 11/10 Q1012

TAF TAF LEJR
Valide du 20 à 12h jusqu'au 21 à 12h UTC


201100Z 2012/2112 18011KT 9999 SCT020 SCT035 TX15/2015Z TN09/2106Z
TEMPO 2012/2015 4000 RA BKN012
PROB30
TEMPO 2012/2014 3000 TSRA SCT020CB
BECMG 2014/2016 25010KT
BECMG 2017/2020 18005KT
PROB40
TEMPO 2021/2106 3000 BR
PROB40
TEMPO 2106/2112 4000 SHRA SCT020TCU BKN035



MET'MAP, la Météo Aéronautique d'un coup d'oeil ! - Copyright ORBIFLY Décembre 2007 - Disclaimer

ORBIFLY MET'MAP TEAM :

Programmation & Développement : Alexandra Zaïnal
Conception & Développement : Baudouin d'Aumeries
Co-Programmation & Développement : Marc-Olivier Méhu
Soutien technique & logistique : Manuel Goepfert

Contact : metmap@orbifly.com




SOURCES & CREDITS :

   NOAA